Time;durP1;ratioP1;P1;durP2;ratioP2;P2;SDS_P1;SDS_P2;PMS_P1;PMS_P2;Temp;Humidity;BMP_temperature;BMP_pressure;BME280_temperature;BME280_humidity;BME280_pressure;Samples;Min_cycle;Max_cycle;Signal;HPM_P1;HPM_P2
2022/02/06 00:00:06;;;;;;;;;;;;;;;;;;1026684;28;1188;-34
2022/02/06 00:00:37;;;;;;;;;;;;;;;;;;1027262;28;815;-36
2022/02/06 00:01:11;;;;;;;;;;;;;;;;;;1030865;28;889;-35
2022/02/06 00:01:42;;;;;;;;;;;;;;;;;;1030880;28;1032;-36
2022/02/06 00:02:17;;;;;;;;;;;;;;;;;;1030842;28;922;-33
2022/02/06 00:02:49;;;;;;;;;;;;;;;;;;1030976;28;893;-36
2022/02/06 00:03:20;;;;;;;;;;;;;;;;;;1030881;28;945;-35
2022/02/06 00:03:56;;;;;;;;;;;;;;;;;;1030797;28;798;-35
2022/02/06 00:04:27;;;;;;;;;;;;;;;;;;1030968;28;962;-35
2022/02/06 00:04:57;;;;;;;;;;;;;;;;;;1030692;28;1131;-38
2022/02/06 00:05:27;;;;;;;;;;;;;;;;;;1030834;28;917;-34
2022/02/06 00:06:00;;;;;;;;;;;;;;;;;;1030877;28;1907;-33
2022/02/06 00:06:33;;;;;;;;;;;;;;;;;;1030771;28;814;-37
2022/02/06 00:07:03;;;;;;;;;;;;;;;;;;1030983;28;962;-33
2022/02/06 00:07:34;;;;;;;;;;;;;;;;;;1030616;28;901;-35
2022/02/06 00:08:09;;;;;;;;;;;;;;;;;;1031109;28;878;-35
2022/02/06 00:08:40;;;;;;;;;;;;;;;;;;1030969;28;934;-36
2022/02/06 00:09:11;;;;;;;;;;;;;;;;;;1030803;28;953;-36
2022/02/06 00:09:43;;;;;;;;;;;;;;;;;;1030857;28;899;-32
2022/02/06 00:10:13;;;;;;;;;;;;;;;;;;1030729;28;1081;-36
2022/02/06 00:10:44;;;;;;;;;;;;;;;;;;1030851;28;1009;-34
2022/02/06 00:11:14;;;;;;;;;;;;;;;;;;1030700;28;1074;-36
2022/02/06 00:11:45;;;;;;;;;;;;;;;;;;1030896;28;890;-34
2022/02/06 00:12:15;;;;;;;;;;;;;;;;;;1030743;28;899;-32
2022/02/06 00:12:46;;;;;;;;;;;;;;;;;;1030728;28;1229;-36
2022/02/06 00:13:17;;;;;;;;;;;;;;;;;;1030872;28;970;-36
2022/02/06 00:13:47;;;;;;;;;;;;;;;;;;1030549;28;878;-37
2022/02/06 00:14:17;;;;;;;;;;;;;;;;;;1031030;28;918;-36
2022/02/06 00:14:48;;;;;;;;;;;;;;;;;;1030299;28;1015;-34
2022/02/06 00:15:20;;;;;;;;;;;;;;;;;;1030662;28;882;-34
2022/02/06 00:15:50;;;;;;;;;;;;;;;;;;1030446;28;950;-35
2022/02/06 00:16:21;;;;;;;;;;;;;;;;;;1030503;28;874;-34
2022/02/06 00:16:51;;;;;;;;;;;;;;;;;;1030911;28;939;-34
2022/02/06 00:17:22;;;;;;;;;;;;;;;;;;1030672;28;888;-36
2022/02/06 00:17:52;;;;;;;;;;;;;;;;;;1030847;28;938;-33
2022/02/06 00:18:22;;;;;;;;;;;;;;;;;;1030844;28;959;-34
2022/02/06 00:18:52;;;;;;;;;;;;;;;;;;1030734;28;901;-35
2022/02/06 00:19:23;;;;;;;;;;;;;;;;;;1030944;28;930;-33
2022/02/06 00:19:53;;;;;;;;;;;;;;;;;;1030669;28;955;-35
2022/02/06 00:20:30;;;;;;;;;;;;;;;;;;1030835;28;910;-33
2022/02/06 00:21:06;;;;;;;;;;;;;;;;;;1030750;28;1061;-35
2022/02/06 00:21:37;;;;;;;;;;;;;;;;;;1030675;28;795;-32
2022/02/06 00:22:10;;;;;;;;;;;;;;;;;;1030961;28;927;-36
2022/02/06 00:22:56;;;;;;;;;;;;;;;;;;1030544;28;957;-34
2022/02/06 00:23:29;;;;;;;;;;;;;;;;;;1030809;28;938;-35
2022/02/06 00:24:01;;;;;;;;;;;;;;;;;;1030910;28;964;-36
2022/02/06 00:24:56;;;;;;;;;;;;;;;;;;1030625;28;886;-35
2022/02/06 00:26:10;;;;;;;;;;;;;;;;;;1030793;28;2031;-33
2022/02/06 00:26:53;;;;;;;;;;;;;;;;;;1030809;28;884;-36
2022/02/06 00:27:37;;;;;;;;;;;;;;;;;;1030998;28;954;-33
2022/02/06 00:28:21;;;;;;;;;;;;;;;;;;1030725;28;795;-36
2022/02/06 00:29:38;;;;;;;;;;;;;;;;;;1030529;28;1054;-34
2022/02/06 00:30:31;;;;;;;;;;;;;;;;;;1030663;28;1512;-34
2022/02/06 00:31:49;;;;;;;;;;;;;;;;;;1030614;28;926;-35
2022/02/06 00:32:39;;;;;;;;;;;;;;;;;;1030743;28;950;-35
2022/02/06 00:35:17;;;;;;;;;;;;;;;;;;1015934;28;1126;-33
2022/02/06 00:39:21;;;;;;;;;;;;;;;;;;1026933;28;824;-34
2022/02/06 00:39:51;;;;;;;;;;;;;;;;;;1026659;28;1008;-31
2022/02/06 00:40:27;;;;;;;;;;;;;;;;;;1026704;28;907;-32
2022/02/06 00:41:29;;;;;;;;;;;;;;;;;;1026682;28;864;-33
2022/02/06 00:42:00;;;;;;;;;;;;;;;;;;1026771;28;943;-31
2022/02/06 00:42:30;;;;;;;;;;;;;;;;;;1026839;28;940;-35
2022/02/06 00:43:01;;;;;;;;;;;;;;;;;;1026655;28;919;-37
2022/02/06 00:43:31;;;;;;;;;;;;;;;;;;1026895;28;947;-34
2022/02/06 00:44:03;;;;;;;;;;;;;;;;;;1026499;28;1032;-32
2022/02/06 00:44:34;;;;;;;;;;;;;;;;;;1026918;28;895;-33
2022/02/06 00:45:05;;;;;;;;;;;;;;;;;;1026651;28;927;-35
2022/02/06 00:45:35;;;;;;;;;;;;;;;;;;1026675;28;852;-36
2022/02/06 00:46:08;;;;;;;;;;;;;;;;;;1026789;28;1982;-33
2022/02/06 00:46:39;;;;;;;;;;;;;;;;;;1026525;28;966;-36
2022/02/06 00:47:10;;;;;;;;;;;;;;;;;;1026906;28;946;-35
2022/02/06 00:47:42;;;;;;;;;;;;;;;;;;1026734;28;998;-35
2022/02/06 00:48:14;;;;;;;;;;;;;;;;;;1026623;28;886;-36
2022/02/06 00:49:11;;;;;;;;;;;;;;;;;;1026876;28;1112;-35
2022/02/06 00:49:39;;;;;;;;;;;;;;;;;;1026148;28;1658;-31
2022/02/06 00:50:10;;;;;;;;;;;;;;;;;;1026639;28;1648;-34
2022/02/06 00:50:46;;;;;;;;;;;;;;;;;;1026759;28;1006;-33
2022/02/06 00:51:29;;;;;;;;;;;;;;;;;;1026837;28;843;-34
2022/02/06 00:52:11;;;;;;;;;;;;;;;;;;1026487;28;981;-34
2022/02/06 00:52:52;;;;;;;;;;;;;;;;;;1026843;28;784;-35
2022/02/06 00:53:22;;;;;;;;;;;;;;;;;;1026917;28;958;-35
2022/02/06 00:53:53;;;;;;;;;;;;;;;;;;1026238;28;899;-34
2022/02/06 00:54:23;;;;;;;;;;;;;;;;;;1030039;28;1064;-36
2022/02/06 00:54:54;;;;;;;;;;;;;;;;;;1030416;28;908;-35
2022/02/06 00:55:24;;;;;;;;;;;;;;;;;;1030444;28;867;-36
2022/02/06 00:55:54;;;;;;;;;;;;;;;;;;1030635;28;1078;-36
2022/02/06 00:56:25;;;;;;;;;;;;;;;;;;1030726;28;926;-35
2022/02/06 00:56:55;;;;;;;;;;;;;;;;;;1030700;28;941;-35
2022/02/06 00:57:27;;;;;;;;;;;;;;;;;;1030780;28;1070;-34
2022/02/06 00:57:57;;;;;;;;;;;;;;;;;;1030713;28;938;-34
2022/02/06 00:58:28;;;;;;;;;;;;;;;;;;1030669;28;943;-33
2022/02/06 00:58:58;;;;;;;;;;;;;;;;;;1030651;28;939;-34
2022/02/06 00:59:28;;;;;;;;;;;;;;;;;;1030739;28;954;-35
2022/02/06 00:59:58;;;;;;;;;;;;;;;;;;1030496;28;896;-36
2022/02/06 01:00:29;;;;;;;;;;;;;;;;;;1030729;28;811;-35
2022/02/06 01:01:00;;;;;;;;;;;;;;;;;;1030682;28;1363;-36
2022/02/06 01:01:30;;;;;;;;;;;;;;;;;;1030796;28;804;-36
2022/02/06 01:02:01;;;;;;;;;;;;;;;;;;1030749;28;1360;-34
2022/02/06 01:02:31;;;;;;;;;;;;;;;;;;1030578;28;952;-34
2022/02/06 01:03:01;;;;;;;;;;;;;;;;;;1030883;28;981;-34
2022/02/06 01:03:32;;;;;;;;;;;;;;;;;;1030469;28;1163;-29
2022/02/06 01:04:03;;;;;;;;;;;;;;;;;;1030792;28;894;-36
2022/02/06 01:04:34;;;;;;;;;;;;;;;;;;1030761;28;1049;-33
2022/02/06 01:05:05;;;;;;;;;;;;;;;;;;1026230;28;1100;-35
2022/02/06 01:05:35;;;;;;;;;;;;;;;;;;1026511;28;943;-36
2022/02/06 01:06:05;;;;;;;;;;;;;;;;;;1026196;28;1923;-31
2022/02/06 01:06:36;;;;;;;;;;;;;;;;;;1026383;28;1098;-31
2022/02/06 01:07:06;;;;;;;;;;;;;;;;;;1030620;28;914;-33
2022/02/06 01:07:37;;;;;;;;;;;;;;;;;;1030845;28;942;-35
2022/02/06 01:08:07;;;;;;;;;;;;;;;;;;1030723;28;1001;-33
2022/02/06 01:08:38;;;;;;;;;;;;;;;;;;1030726;28;1776;-32
2022/02/06 01:09:09;;;;;;;;;;;;;;;;;;1030602;28;919;-33
2022/02/06 01:09:39;;;;;;;;;;;;;;;;;;1030836;28;1018;-32
2022/02/06 01:10:10;;;;;;;;;;;;;;;;;;1030660;28;1147;-34
2022/02/06 01:10:40;;;;;;;;;;;;;;;;;;1030486;28;950;-32
2022/02/06 01:11:11;;;;;;;;;;;;;;;;;;1030771;28;847;-35
2022/02/06 01:11:42;;;;;;;;;;;;;;;;;;1030757;28;930;-35
2022/02/06 01:12:18;;;;;;;;;;;;;;;;;;1030643;28;911;-34
2022/02/06 01:12:55;;;;;;;;;;;;;;;;;;1030616;28;1181;-35
2022/02/06 01:14:42;;;;;;;;;;;;;;;;;;1021909;29;1118;-35
2022/02/06 01:15:18;;;;;;;;;;;;;;;;;;1029106;28;1178;-33
2022/02/06 01:16:34;;;;;;;;;;;;;;;;;;1030705;28;883;-33
2022/02/06 01:17:48;;;;;;;;;;;;;;;;;;1017922;29;1079;-31
2022/02/06 01:18:25;;;;;;;;;;;;;;;;;;1024112;28;965;-34
2022/02/06 01:19:02;;;;;;;;;;;;;;;;;;1030748;28;895;-35
2022/02/06 01:19:52;;;;;;;;;;;;;;;;;;1030431;28;934;-34
2022/02/06 01:20:29;;;;;;;;;;;;;;;;;;1030521;28;947;-38
2022/02/06 01:21:05;;;;;;;;;;;;;;;;;;1030690;28;831;-35
2022/02/06 01:22:27;;;;;;;;;;;;;;;;;;1026712;28;934;-34
2022/02/06 01:23:04;;;;;;;;;;;;;;;;;;1026666;28;844;-34
2022/02/06 01:25:31;;;;;;;;;;;;;;;;;;1014157;29;1071;-34
2022/02/06 01:26:06;;;;;;;;;;;;;;;;;;1026688;28;1911;-31
2022/02/06 01:26:49;;;;;;;;;;;;;;;;;;1026662;28;1139;-33
2022/02/06 01:27:23;;;;;;;;;;;;;;;;;;1026555;28;891;-33
2022/02/06 01:27:59;;;;;;;;;;;;;;;;;;1026760;28;1121;-34
2022/02/06 01:28:37;;;;;;;;;;;;;;;;;;1026522;28;1177;-36
2022/02/06 01:29:16;;;;;;;;;;;;;;;;;;1026606;28;788;-34
2022/02/06 01:29:56;;;;;;;;;;;;;;;;;;1026846;28;887;-33
2022/02/06 01:30:44;;;;;;;;;;;;;;;;;;1026596;28;1038;-35
2022/02/06 01:32:16;;;;;;;;;;;;;;;;;;1018045;29;1074;-36
2022/02/06 01:32:54;;;;;;;;;;;;;;;;;;1020701;28;1059;-34
2022/02/06 01:33:33;;;;;;;;;;;;;;;;;;1026743;28;739;-34
2022/02/06 01:34:05;;;;;;;;;;;;;;;;;;1026753;28;961;-33
2022/02/06 01:34:50;;;;;;;;;;;;;;;;;;1026594;28;965;-38
2022/02/06 01:35:30;;;;;;;;;;;;;;;;;;1026592;28;978;-32
2022/02/06 01:36:47;;;;;;;;;;;;;;;;;;1026647;28;947;-32
2022/02/06 01:38:07;;;;;;;;;;;;;;;;;;1026519;28;882;-32
2022/02/06 01:39:44;;;;;;;;;;;;;;;;;;1026766;28;1010;-36
2022/02/06 01:40:32;;;;;;;;;;;;;;;;;;1026648;28;951;-35
2022/02/06 01:41:15;;;;;;;;;;;;;;;;;;1026885;28;973;-33
2022/02/06 01:41:47;;;;;;;;;;;;;;;;;;1027293;28;943;-34
2022/02/06 01:42:59;;;;;;;;;;;;;;;;;;1027547;28;799;-34
2022/02/06 01:43:18;;;;;;;;;;;;;;;;;;1026966;28;1337;-35
2022/02/06 01:43:53;;;;;;;;;;;;;;;;;;1027529;28;996;-31
2022/02/06 01:45:24;;;;;;;;;;;;;;;;;;1027334;28;882;-35
2022/02/06 02:00:39;;;;;;;;;;;;;;;;;;1027520;28;852;-31
2022/02/06 02:02:14;;;;;;;;;;;;;;;;;;1027339;28;1213;-35
2022/02/06 02:05:39;;;;;;;;;;;;;;;;;;1027014;28;947;-34
2022/02/06 02:09:22;;;;;;;;;;;;;;;;;;1027470;28;899;-35
2022/02/06 02:10:24;;;;;;;;;;;;;;;;;;1027121;28;1516;-35
2022/02/06 02:12:56;;;;;;;;;;;;;;;;;;1027115;28;1753;-34
2022/02/06 02:14:17;;;;;;;;;;;;;;;;;;1027286;28;895;-33
2022/02/06 02:18:01;;;;;;;;;;;;;;;;;;1027268;28;863;-34
2022/02/06 02:19:07;;;;;;;;;;;;;;;;;;1027370;28;1393;-36
2022/02/06 02:20:11;;;;;;;;;;;;;;;;;;1027175;28;1714;-34
2022/02/06 02:21:10;;;;;;;;;;;;;;;;;;1026967;28;788;-32
2022/02/06 02:22:15;;;;;;;;;;;;;;;;;;1026899;28;994;-34
2022/02/06 02:25:24;;;;;;;;;;;;;;;;;;1027191;28;994;-33
2022/02/06 02:28:00;;;;;;;;;;;;;;;;;;1018571;29;1149;-36
2022/02/06 02:44:13;;;;;;;;;;;;;;;;;;1027286;28;976;-34
2022/02/06 02:45:36;;;;;;;;;;;;;;;;;;1027196;28;1089;-36
2022/02/06 02:46:22;;;;;;;;;;;;;;;;;;1027083;28;1995;-34
2022/02/06 02:46:57;;;;;;;;;;;;;;;;;;1027137;28;891;-32
2022/02/06 02:47:27;;;;;;;;;;;;;;;;;;1027011;28;887;-31
2022/02/06 02:48:03;;;;;;;;;;;;;;;;;;1027233;28;908;-32
2022/02/06 02:48:34;;;;;;;;;;;;;;;;;;1027339;28;944;-32
2022/02/06 02:49:07;;;;;;;;;;;;;;;;;;1026958;28;851;-36
2022/02/06 02:49:39;;;;;;;;;;;;;;;;;;1027202;28;1059;-34
2022/02/06 02:50:14;;;;;;;;;;;;;;;;;;1027020;28;935;-35
2022/02/06 02:50:51;;;;;;;;;;;;;;;;;;1026933;28;911;-35
2022/02/06 02:51:24;;;;;;;;;;;;;;;;;;1027230;28;987;-33
2022/02/06 02:52:01;;;;;;;;;;;;;;;;;;1026978;28;978;-31
2022/02/06 02:53:14;;;;;;;;;;;;;;;;;;1026639;28;1437;-33
2022/02/06 02:53:52;;;;;;;;;;;;;;;;;;1026956;28;951;-35
2022/02/06 02:54:26;;;;;;;;;;;;;;;;;;1027093;28;942;-33
2022/02/06 02:55:14;;;;;;;;;;;;;;;;;;1026972;28;1094;-32
2022/02/06 02:55:59;;;;;;;;;;;;;;;;;;1027191;28;936;-34
2022/02/06 02:57:41;;;;;;;;;;;;;;;;;;1018320;29;1136;-33
2022/02/06 02:58:49;;;;;;;;;;;;;;;;;;1027059;28;892;-33
2022/02/06 02:59:28;;;;;;;;;;;;;;;;;;1027244;28;1207;-33
2022/02/06 03:00:18;;;;;;;;;;;;;;;;;;1027012;28;844;-32
2022/02/06 03:01:06;;;;;;;;;;;;;;;;;;1026917;28;912;-35
2022/02/06 03:01:46;;;;;;;;;;;;;;;;;;1027000;28;954;-35
2022/02/06 03:02:17;;;;;;;;;;;;;;;;;;1027118;28;1686;-32
2022/02/06 03:02:50;;;;;;;;;;;;;;;;;;1027099;28;946;-32
2022/02/06 03:03:27;;;;;;;;;;;;;;;;;;1027050;28;974;-30
2022/02/06 03:03:58;;;;;;;;;;;;;;;;;;1027070;28;974;-30
2022/02/06 03:04:28;;;;;;;;;;;;;;;;;;1026996;28;1065;-35
2022/02/06 03:05:00;;;;;;;;;;;;;;;;;;1027021;28;974;-31
2022/02/06 03:05:31;;;;;;;;;;;;;;;;;;1027145;28;1005;-29
2022/02/06 03:06:03;;;;;;;;;;;;;;;;;;1026745;28;1993;-34
2022/02/06 03:06:33;;;;;;;;;;;;;;;;;;1027260;28;994;-35
2022/02/06 03:07:05;;;;;;;;;;;;;;;;;;1026839;28;970;-36
2022/02/06 03:07:35;;;;;;;;;;;;;;;;;;1027293;28;923;-30
2022/02/06 03:08:07;;;;;;;;;;;;;;;;;;1026985;28;931;-33
2022/02/06 03:08:40;;;;;;;;;;;;;;;;;;1027103;28;903;-34
2022/02/06 03:09:10;;;;;;;;;;;;;;;;;;1027110;28;955;-32
2022/02/06 03:09:43;;;;;;;;;;;;;;;;;;1026955;28;935;-30
2022/02/06 03:10:13;;;;;;;;;;;;;;;;;;1027090;28;995;-36
2022/02/06 03:10:44;;;;;;;;;;;;;;;;;;1026851;28;930;-34
2022/02/06 03:11:14;;;;;;;;;;;;;;;;;;1027019;28;839;-34
2022/02/06 03:11:45;;;;;;;;;;;;;;;;;;1027151;28;1089;-31
2022/02/06 03:12:19;;;;;;;;;;;;;;;;;;1026802;28;1017;-36
2022/02/06 03:12:52;;;;;;;;;;;;;;;;;;1027358;28;1226;-35
2022/02/06 03:13:25;;;;;;;;;;;;;;;;;;1026890;28;1352;-35
2022/02/06 03:14:39;;;;;;;;;;;;;;;;;;1026919;28;900;-35
2022/02/06 03:15:21;;;;;;;;;;;;;;;;;;1027073;28;976;-33
2022/02/06 03:16:07;;;;;;;;;;;;;;;;;;1026915;28;916;-36
2022/02/06 03:16:44;;;;;;;;;;;;;;;;;;1026996;28;879;-35
2022/02/06 03:17:31;;;;;;;;;;;;;;;;;;1027182;28;831;-36
2022/02/06 03:18:04;;;;;;;;;;;;;;;;;;1027162;28;967;-36
2022/02/06 03:18:43;;;;;;;;;;;;;;;;;;1026812;28;969;-33
2022/02/06 03:19:19;;;;;;;;;;;;;;;;;;1027120;28;1009;-36
2022/02/06 03:19:55;;;;;;;;;;;;;;;;;;1027041;28;1100;-34
2022/02/06 03:20:25;;;;;;;;;;;;;;;;;;1026799;28;1010;-33
2022/02/06 03:20:56;;;;;;;;;;;;;;;;;;1027073;28;875;-31
2022/02/06 03:21:29;;;;;;;;;;;;;;;;;;1030276;28;1631;-33
2022/02/06 03:21:59;;;;;;;;;;;;;;;;;;1031007;28;935;-36
2022/02/06 03:22:35;;;;;;;;;;;;;;;;;;1030946;28;1001;-34
2022/02/06 03:23:07;;;;;;;;;;;;;;;;;;1030990;28;898;-33
2022/02/06 03:23:40;;;;;;;;;;;;;;;;;;1031106;28;815;-36
2022/02/06 03:24:49;;;;;;;;;;;;;;;;;;1030928;28;981;-32
2022/02/06 03:25:22;;;;;;;;;;;;;;;;;;1030949;28;1833;-35
2022/02/06 03:25:55;;;;;;;;;;;;;;;;;;1031186;28;1973;-33
2022/02/06 03:26:26;;;;;;;;;;;;;;;;;;1030870;28;796;-32
2022/02/06 03:26:56;;;;;;;;;;;;;;;;;;1031190;28;993;-34
2022/02/06 03:27:26;;;;;;;;;;;;;;;;;;1030992;28;1031;-35
2022/02/06 03:27:57;;;;;;;;;;;;;;;;;;1031118;28;943;-35
2022/02/06 03:28:27;;;;;;;;;;;;;;;;;;1030962;28;1197;-34
2022/02/06 03:28:58;;;;;;;;;;;;;;;;;;1031141;28;871;-32
2022/02/06 03:29:28;;;;;;;;;;;;;;;;;;1031045;28;875;-34
2022/02/06 03:29:58;;;;;;;;;;;;;;;;;;1031007;28;1714;-32
2022/02/06 03:30:32;;;;;;;;;;;;;;;;;;1030766;28;1057;-35
2022/02/06 03:31:05;;;;;;;;;;;;;;;;;;1030822;28;1065;-32
2022/02/06 03:31:38;;;;;;;;;;;;;;;;;;1031025;28;918;-35
2022/02/06 03:32:09;;;;;;;;;;;;;;;;;;1031159;28;1001;-35
2022/02/06 03:32:39;;;;;;;;;;;;;;;;;;1030861;28;887;-33
2022/02/06 03:33:10;;;;;;;;;;;;;;;;;;1031005;28;1161;-34
2022/02/06 03:33:41;;;;;;;;;;;;;;;;;;1030904;28;1058;-34
2022/02/06 03:34:12;;;;;;;;;;;;;;;;;;1031099;28;931;-32
2022/02/06 03:34:42;;;;;;;;;;;;;;;;;;1030779;28;915;-33
2022/02/06 03:35:13;;;;;;;;;;;;;;;;;;1031022;28;930;-35
2022/02/06 03:35:43;;;;;;;;;;;;;;;;;;1030862;28;986;-32
2022/02/06 03:36:14;;;;;;;;;;;;;;;;;;1031001;28;863;-32
2022/02/06 03:36:44;;;;;;;;;;;;;;;;;;1030996;28;1285;-35
2022/02/06 03:37:15;;;;;;;;;;;;;;;;;;1030853;28;957;-36
2022/02/06 03:37:45;;;;;;;;;;;;;;;;;;1030947;28;941;-35
2022/02/06 03:38:16;;;;;;;;;;;;;;;;;;1031082;28;965;-36
2022/02/06 03:38:48;;;;;;;;;;;;;;;;;;1030890;28;1764;-35
2022/02/06 03:39:22;;;;;;;;;;;;;;;;;;1031193;28;1276;-35
2022/02/06 03:39:54;;;;;;;;;;;;;;;;;;1030791;28;981;-32
2022/02/06 03:40:28;;;;;;;;;;;;;;;;;;1031039;28;827;-35
2022/02/06 03:41:03;;;;;;;;;;;;;;;;;;1031022;28;951;-34
2022/02/06 03:41:53;;;;;;;;;;;;;;;;;;1030885;28;981;-35
2022/02/06 03:42:30;;;;;;;;;;;;;;;;;;1030804;28;911;-34
2022/02/06 03:43:09;;;;;;;;;;;;;;;;;;1031215;28;974;-33
2022/02/06 03:43:51;;;;;;;;;;;;;;;;;;1030923;28;1602;-35
2022/02/06 03:44:34;;;;;;;;;;;;;;;;;;1030892;28;1053;-35
2022/02/06 03:45:07;;;;;;;;;;;;;;;;;;1030782;28;775;-36
2022/02/06 03:45:45;;;;;;;;;;;;;;;;;;1031152;28;970;-33
2022/02/06 03:46:34;;;;;;;;;;;;;;;;;;1030939;28;1722;-35
2022/02/06 03:47:25;;;;;;;;;;;;;;;;;;1030937;28;891;-34
2022/02/06 03:48:08;;;;;;;;;;;;;;;;;;1030749;28;895;-34
2022/02/06 03:49:16;;;;;;;;;;;;;;;;;;1031090;28;970;-32
2022/02/06 03:50:20;;;;;;;;;;;;;;;;;;1030586;28;823;-35
2022/02/06 03:50:53;;;;;;;;;;;;;;;;;;1031056;28;1111;-35
2022/02/06 03:51:31;;;;;;;;;;;;;;;;;;1030703;28;875;-33
2022/02/06 03:52:02;;;;;;;;;;;;;;;;;;1030826;28;958;-34
2022/02/06 03:52:43;;;;;;;;;;;;;;;;;;1031071;28;947;-28
2022/02/06 03:53:17;;;;;;;;;;;;;;;;;;1030786;28;1014;-35
2022/02/06 03:53:50;;;;;;;;;;;;;;;;;;1030851;28;953;-33
2022/02/06 03:54:20;;;;;;;;;;;;;;;;;;1030815;28;939;-34
2022/02/06 03:54:50;;;;;;;;;;;;;;;;;;1030921;28;839;-32
2022/02/06 03:55:21;;;;;;;;;;;;;;;;;;1030865;28;1093;-34
2022/02/06 03:55:52;;;;;;;;;;;;;;;;;;1030849;28;1009;-35
2022/02/06 03:56:24;;;;;;;;;;;;;;;;;;1030954;28;938;-34
2022/02/06 03:56:56;;;;;;;;;;;;;;;;;;1030792;28;973;-34
2022/02/06 03:57:26;;;;;;;;;;;;;;;;;;1030810;28;962;-32
2022/02/06 03:57:57;;;;;;;;;;;;;;;;;;1031090;28;871;-36
2022/02/06 03:58:27;;;;;;;;;;;;;;;;;;1030662;28;994;-36
2022/02/06 03:58:58;;;;;;;;;;;;;;;;;;1031021;28;1356;-34
2022/02/06 03:59:30;;;;;;;;;;;;;;;;;;1030702;28;914;-34
2022/02/06 04:00:01;;;;;;;;;;;;;;;;;;1030876;28;887;-35
2022/02/06 04:00:31;;;;;;;;;;;;;;;;;;1030812;28;993;-36
2022/02/06 04:01:01;;;;;;;;;;;;;;;;;;1030636;28;962;-32
2022/02/06 04:01:32;;;;;;;;;;;;;;;;;;1031022;28;920;-33
2022/02/06 04:02:03;;;;;;;;;;;;;;;;;;1030651;28;1050;-29
2022/02/06 04:02:34;;;;;;;;;;;;;;;;;;1031003;28;914;-31
2022/02/06 04:03:04;;;;;;;;;;;;;;;;;;1030833;28;1102;-34
2022/02/06 04:03:35;;;;;;;;;;;;;;;;;;1030843;28;768;-29
2022/02/06 04:04:05;;;;;;;;;;;;;;;;;;1030975;28;994;-32
2022/02/06 04:04:35;;;;;;;;;;;;;;;;;;1030830;28;815;-33
2022/02/06 04:05:06;;;;;;;;;;;;;;;;;;1030810;28;989;-34
2022/02/06 04:05:44;;;;;;;;;;;;;;;;;;1030751;28;1045;-34
2022/02/06 04:06:15;;;;;;;;;;;;;;;;;;1030713;28;1230;-35
2022/02/06 04:06:46;;;;;;;;;;;;;;;;;;1030986;28;994;-36
2022/02/06 04:07:16;;;;;;;;;;;;;;;;;;1030774;28;925;-34
2022/02/06 04:07:47;;;;;;;;;;;;;;;;;;1030951;28;957;-32
2022/02/06 04:08:19;;;;;;;;;;;;;;;;;;1030728;28;946;-33
2022/02/06 04:08:50;;;;;;;;;;;;;;;;;;1030979;28;1029;-34
2022/02/06 04:09:31;;;;;;;;;;;;;;;;;;1030742;28;993;-36
2022/02/06 04:10:02;;;;;;;;;;;;;;;;;;1030594;28;950;-33
2022/02/06 04:10:41;;;;;;;;;;;;;;;;;;1030932;28;989;-36
2022/02/06 04:11:16;;;;;;;;;;;;;;;;;;1030925;28;1422;-32
2022/02/06 04:11:50;;;;;;;;;;;;;;;;;;1030795;28;903;-35
2022/02/06 04:12:22;;;;;;;;;;;;;;;;;;1030894;28;803;-32
2022/02/06 04:12:53;;;;;;;;;;;;;;;;;;1030799;28;1241;-32
2022/02/06 04:13:25;;;;;;;;;;;;;;;;;;1030720;28;879;-35
2022/02/06 04:14:20;;;;;;;;;;;;;;;;;;1030967;28;963;-32
2022/02/06 04:14:56;;;;;;;;;;;;;;;;;;1031130;28;942;-36
2022/02/06 04:15:36;;;;;;;;;;;;;;;;;;1030423;28;914;-34
2022/02/06 04:16:13;;;;;;;;;;;;;;;;;;1030842;28;958;-33
2022/02/06 04:16:50;;;;;;;;;;;;;;;;;;1030700;28;971;-35
2022/02/06 04:17:24;;;;;;;;;;;;;;;;;;1030651;28;1131;-36
2022/02/06 04:18:08;;;;;;;;;;;;;;;;;;1030729;28;950;-31
2022/02/06 04:18:50;;;;;;;;;;;;;;;;;;1030835;28;907;-34
2022/02/06 04:19:25;;;;;;;;;;;;;;;;;;1030650;28;989;-30
2022/02/06 04:19:55;;;;;;;;;;;;;;;;;;1030913;28;938;-31
2022/02/06 04:20:25;;;;;;;;;;;;;;;;;;1026180;28;939;-35
2022/02/06 04:20:57;;;;;;;;;;;;;;;;;;1026622;28;987;-34
2022/02/06 04:21:27;;;;;;;;;;;;;;;;;;1026072;28;1347;-35
2022/02/06 04:21:58;;;;;;;;;;;;;;;;;;1026794;28;1109;-31
2022/02/06 04:22:28;;;;;;;;;;;;;;;;;;1030769;28;1066;-33
2022/02/06 04:22:58;;;;;;;;;;;;;;;;;;1031061;28;923;-30
2022/02/06 04:23:30;;;;;;;;;;;;;;;;;;1030681;28;934;-36
2022/02/06 04:24:00;;;;;;;;;;;;;;;;;;1030860;28;907;-35
2022/02/06 04:24:30;;;;;;;;;;;;;;;;;;1030858;28;954;-33
2022/02/06 04:25:01;;;;;;;;;;;;;;;;;;1030718;28;947;-34
2022/02/06 04:25:31;;;;;;;;;;;;;;;;;;1030854;28;1022;-35
2022/02/06 04:26:01;;;;;;;;;;;;;;;;;;1030470;28;1910;-32
2022/02/06 04:26:32;;;;;;;;;;;;;;;;;;1030976;28;966;-35
2022/02/06 04:27:03;;;;;;;;;;;;;;;;;;1030755;28;911;-34
2022/02/06 04:27:33;;;;;;;;;;;;;;;;;;1030765;28;887;-34
2022/02/06 04:28:04;;;;;;;;;;;;;;;;;;1030863;28;887;-33
2022/02/06 04:28:34;;;;;;;;;;;;;;;;;;1029282;28;1204;-35
2022/02/06 04:29:05;;;;;;;;;;;;;;;;;;1026626;28;955;-34
2022/02/06 04:29:35;;;;;;;;;;;;;;;;;;1026261;28;871;-34
2022/02/06 04:30:06;;;;;;;;;;;;;;;;;;1026541;28;899;-34
2022/02/06 04:30:36;;;;;;;;;;;;;;;;;;1026180;28;1072;-35
2022/02/06 04:31:09;;;;;;;;;;;;;;;;;;1026815;28;915;-35
2022/02/06 04:31:41;;;;;;;;;;;;;;;;;;1026744;28;1030;-35
2022/02/06 04:32:11;;;;;;;;;;;;;;;;;;1026759;28;916;-32
2022/02/06 04:32:42;;;;;;;;;;;;;;;;;;1026641;28;1089;-35
2022/02/06 04:33:12;;;;;;;;;;;;;;;;;;1026797;28;947;-34
2022/02/06 04:33:42;;;;;;;;;;;;;;;;;;1026688;28;891;-35
2022/02/06 04:34:20;;;;;;;;;;;;;;;;;;1022493;29;939;-35
2022/02/06 04:34:52;;;;;;;;;;;;;;;;;;1022336;29;1674;-35
2022/02/06 04:35:27;;;;;;;;;;;;;;;;;;1022573;29;1006;-31
2022/02/06 04:36:00;;;;;;;;;;;;;;;;;;1024453;28;1033;-35
2022/02/06 04:36:37;;;;;;;;;;;;;;;;;;1026605;28;914;-35
2022/02/06 04:37:15;;;;;;;;;;;;;;;;;;1026924;28;1094;-36
2022/02/06 04:38:22;;;;;;;;;;;;;;;;;;1022598;28;1025;-31
2022/02/06 04:39:06;;;;;;;;;;;;;;;;;;1022853;29;1105;-32
2022/02/06 04:40:00;;;;;;;;;;;;;;;;;;1022856;29;974;-32
2022/02/06 04:41:37;;;;;;;;;;;;;;;;;;1022830;29;980;-34
2022/02/06 04:45:18;;;;;;;;;;;;;;;;;;1022489;29;1059;-36
2022/02/06 04:46:50;;;;;;;;;;;;;;;;;;1022606;29;1987;-30
2022/02/06 04:47:22;;;;;;;;;;;;;;;;;;1022431;28;1099;-35
2022/02/06 04:49:23;;;;;;;;;;;;;;;;;;1022760;29;1154;-35
2022/02/06 04:50:22;;;;;;;;;;;;;;;;;;1022495;29;1291;-32
2022/02/06 05:12:29;;;;;;;;;;;;;;;;;;1006536;29;1033;-34
2022/02/06 05:14:32;;;;;;;;;;;;;;;;;;998506;29;1128;-32
2022/02/06 05:21:43;;;;;;;;;;;;;;;;;;1029636;28;1183;-34
2022/02/06 05:24:02;;;;;;;;;;;;;;;;;;1031344;28;967;-30
2022/02/06 05:25:37;;;;;;;;;;;;;;;;;;1031376;28;943;-33
2022/02/06 05:26:25;;;;;;;;;;;;;;;;;;1031603;28;1910;-34
2022/02/06 05:28:35;;;;;;;;;;;;;;;;;;1031533;28;986;-35
2022/02/06 05:30:19;;;;;;;;;;;;;;;;;;1027531;28;934;-33
2022/02/06 05:31:13;;;;;;;;;;;;;;;;;;1027182;28;1054;-36
2022/02/06 05:31:57;;;;;;;;;;;;;;;;;;1027294;28;1606;-35
2022/02/06 05:32:57;;;;;;;;;;;;;;;;;;1027517;28;911;-34
2022/02/06 05:33:27;;;;;;;;;;;;;;;;;;1027168;28;1463;-30
2022/02/06 05:33:58;;;;;;;;;;;;;;;;;;1027539;28;1012;-36
2022/02/06 05:34:28;;;;;;;;;;;;;;;;;;1027235;28;1037;-36
2022/02/06 05:34:59;;;;;;;;;;;;;;;;;;1027418;28;922;-33
2022/02/06 05:35:29;;;;;;;;;;;;;;;;;;1027526;28;973;-35
2022/02/06 05:35:59;;;;;;;;;;;;;;;;;;1027264;28;1155;-34
2022/02/06 05:36:30;;;;;;;;;;;;;;;;;;1027637;28;1039;-33
2022/02/06 05:37:00;;;;;;;;;;;;;;;;;;1027140;28;895;-34
2022/02/06 05:37:30;;;;;;;;;;;;;;;;;;1027555;28;978;-35
2022/02/06 05:38:01;;;;;;;;;;;;;;;;;;1027187;28;1073;-35
2022/02/06 05:38:31;;;;;;;;;;;;;;;;;;1027460;28;973;-35
2022/02/06 05:39:02;;;;;;;;;;;;;;;;;;1027274;28;1142;-35
2022/02/06 05:39:32;;;;;;;;;;;;;;;;;;1027342;28;938;-33
2022/02/06 05:40:03;;;;;;;;;;;;;;;;;;1027355;28;971;-32
2022/02/06 05:40:33;;;;;;;;;;;;;;;;;;1027364;28;780;-35
2022/02/06 05:41:04;;;;;;;;;;;;;;;;;;1027299;28;959;-32
2022/02/06 05:41:35;;;;;;;;;;;;;;;;;;1026375;28;963;-35
2022/02/06 05:42:05;;;;;;;;;;;;;;;;;;1027296;28;1041;-36
2022/02/06 05:42:35;;;;;;;;;;;;;;;;;;1027279;28;1033;-34
2022/02/06 05:43:06;;;;;;;;;;;;;;;;;;1027250;28;1154;-32
2022/02/06 05:43:36;;;;;;;;;;;;;;;;;;1027397;28;983;-36
2022/02/06 05:44:07;;;;;;;;;;;;;;;;;;1027238;28;914;-34
2022/02/06 05:44:37;;;;;;;;;;;;;;;;;;1027394;28;991;-36
2022/02/06 05:45:08;;;;;;;;;;;;;;;;;;1027209;28;919;-35
2022/02/06 05:45:39;;;;;;;;;;;;;;;;;;1023060;29;839;-34
2022/02/06 05:46:09;;;;;;;;;;;;;;;;;;1022998;28;1927;-34
2022/02/06 05:46:39;;;;;;;;;;;;;;;;;;1022982;28;863;-36
2022/02/06 05:47:10;;;;;;;;;;;;;;;;;;1023215;29;1097;-34
2022/02/06 05:47:41;;;;;;;;;;;;;;;;;;1027091;28;922;-33
2022/02/06 05:48:11;;;;;;;;;;;;;;;;;;1027428;28;915;-34
2022/02/06 05:48:41;;;;;;;;;;;;;;;;;;1027306;28;912;-32
2022/02/06 05:49:12;;;;;;;;;;;;;;;;;;1027075;28;1472;-33
2022/02/06 05:49:42;;;;;;;;;;;;;;;;;;1030641;28;1549;-34
2022/02/06 05:50:16;;;;;;;;;;;;;;;;;;1030975;28;1024;-34
2022/02/06 05:50:46;;;;;;;;;;;;;;;;;;1026942;28;1085;-34
2022/02/06 05:51:17;;;;;;;;;;;;;;;;;;1026887;28;871;-36
2022/02/06 05:51:48;;;;;;;;;;;;;;;;;;1031119;28;800;-34
2022/02/06 05:52:19;;;;;;;;;;;;;;;;;;1031238;28;958;-34
2022/02/06 05:52:50;;;;;;;;;;;;;;;;;;1031387;28;946;-32
2022/02/06 05:53:20;;;;;;;;;;;;;;;;;;1031536;28;911;-35
2022/02/06 05:53:51;;;;;;;;;;;;;;;;;;1031294;28;942;-36